sensor_id;sensor_type;location;lat;lon;timestamp;temperature;humidity
75615;DHT22;64199;48.578;-4.520;2023-03-09T00:00:56;21.40;49.00
75615;DHT22;64199;48.578;-4.520;2023-03-09T00:03:22;21.40;49.00
75615;DHT22;64199;48.578;-4.520;2023-03-09T00:05:59;21.40;49.10
75615;DHT22;64199;48.578;-4.520;2023-03-09T00:08:27;21.50;49.20
75615;DHT22;64199;48.578;-4.520;2023-03-09T00:10:54;21.50;49.20
75615;DHT22;64199;48.578;-4.520;2023-03-09T00:13:22;21.50;49.20
75615;DHT22;64199;48.578;-4.520;2023-03-09T00:15:48;21.50;49.30
75615;DHT22;64199;48.578;-4.520;2023-03-09T00:18:18;21.60;49.30
75615;DHT22;64199;48.578;-4.520;2023-03-09T00:20:43;21.60;49.20
75615;DHT22;64199;48.578;-4.520;2023-03-09T00:23:13;21.60;49.10
75615;DHT22;64199;48.578;-4.520;2023-03-09T00:25:39;21.60;49.00
75615;DHT22;64199;48.578;-4.520;2023-03-09T00:28:05;21.60;48.90
75615;DHT22;64199;48.578;-4.520;2023-03-09T00:30:31;21.70;48.80
75615;DHT22;64199;48.578;-4.520;2023-03-09T00:32:57;21.70;48.80
75615;DHT22;64199;48.578;-4.520;2023-03-09T00:35:23;21.70;48.90
75615;DHT22;64199;48.578;-4.520;2023-03-09T00:37:55;21.80;49.60
75615;DHT22;64199;48.578;-4.520;2023-03-09T00:40:22;21.80;49.10
75615;DHT22;64199;48.578;-4.520;2023-03-09T00:42:47;21.80;49.10
75615;DHT22;64199;48.578;-4.520;2023-03-09T00:45:14;21.80;49.00
75615;DHT22;64199;48.578;-4.520;2023-03-09T00:47:42;21.80;49.10
75615;DHT22;64199;48.578;-4.520;2023-03-09T00:50:09;21.90;49.20
75615;DHT22;64199;48.578;-4.520;2023-03-09T00:52:36;21.90;49.20
75615;DHT22;64199;48.578;-4.520;2023-03-09T00:55:01;21.90;49.20
75615;DHT22;64199;48.578;-4.520;2023-03-09T00:57:27;22.00;49.10
75615;DHT22;64199;48.578;-4.520;2023-03-09T00:59:53;21.90;49.10
75615;DHT22;64199;48.578;-4.520;2023-03-09T01:02:20;22.00;49.20
75615;DHT22;64199;48.578;-4.520;2023-03-09T01:04:47;22.00;49.20
75615;DHT22;64199;48.578;-4.520;2023-03-09T01:07:13;22.10;49.20
75615;DHT22;64199;48.578;-4.520;2023-03-09T01:09:39;22.10;49.20
75615;DHT22;64199;48.578;-4.520;2023-03-09T01:12:06;22.10;49.10
75615;DHT22;64199;48.578;-4.520;2023-03-09T01:14:33;22.10;49.10
75615;DHT22;64199;48.578;-4.520;2023-03-09T01:16:59;22.10;49.10
75615;DHT22;64199;48.578;-4.520;2023-03-09T01:19:26;22.20;49.10
75615;DHT22;64199;48.578;-4.520;2023-03-09T01:21:52;22.20;49.10
75615;DHT22;64199;48.578;-4.520;2023-03-09T01:24:18;22.20;49.20
75615;DHT22;64199;48.578;-4.520;2023-03-09T01:26:44;22.20;49.10
75615;DHT22;64199;48.578;-4.520;2023-03-09T01:29:10;22.30;49.10
75615;DHT22;64199;48.578;-4.520;2023-03-09T01:31:35;22.30;49.20
75615;DHT22;64199;48.578;-4.520;2023-03-09T01:34:02;22.30;49.10
75615;DHT22;64199;48.578;-4.520;2023-03-09T01:36:28;22.30;49.00
75615;DHT22;64199;48.578;-4.520;2023-03-09T01:38:54;22.30;49.00
75615;DHT22;64199;48.578;-4.520;2023-03-09T01:41:21;22.40;49.10
75615;DHT22;64199;48.578;-4.520;2023-03-09T01:43:52;22.30;48.90
75615;DHT22;64199;48.578;-4.520;2023-03-09T01:49:06;22.40;48.60
75615;DHT22;64199;48.578;-4.520;2023-03-09T01:51:41;22.30;48.40
75615;DHT22;64199;48.578;-4.520;2023-03-09T01:54:13;22.40;48.30
75615;DHT22;64199;48.578;-4.520;2023-03-09T01:56:41;22.40;48.10
75615;DHT22;64199;48.578;-4.520;2023-03-09T01:59:09;22.30;48.00
75615;DHT22;64199;48.578;-4.520;2023-03-09T02:01:36;22.40;48.00
75615;DHT22;64199;48.578;-4.520;2023-03-09T02:04:10;22.30;47.90
75615;DHT22;64199;48.578;-4.520;2023-03-09T02:06:36;22.30;47.80
75615;DHT22;64199;48.578;-4.520;2023-03-09T02:09:22;22.30;47.70
75615;DHT22;64199;48.578;-4.520;2023-03-09T02:11:49;22.30;47.70
75615;DHT22;64199;48.578;-4.520;2023-03-09T02:14:16;22.30;47.70
75615;DHT22;64199;48.578;-4.520;2023-03-09T02:16:42;22.30;47.60
75615;DHT22;64199;48.578;-4.520;2023-03-09T02:19:58;22.30;47.60
75615;DHT22;64199;48.578;-4.520;2023-03-09T02:22:03;22.20;47.40
75615;DHT22;64199;48.578;-4.520;2023-03-09T02:25:08;22.20;47.30
75615;DHT22;64199;48.578;-4.520;2023-03-09T02:27:36;22.20;47.20
75615;DHT22;64199;48.578;-4.520;2023-03-09T02:30:03;22.20;47.20
75615;DHT22;64199;48.578;-4.520;2023-03-09T02:32:30;22.20;47.10
75615;DHT22;64199;48.578;-4.520;2023-03-09T02:34:56;22.20;47.00
75615;DHT22;64199;48.578;-4.520;2023-03-09T02:37:30;22.10;47.00
75615;DHT22;64199;48.578;-4.520;2023-03-09T02:40:31;22.10;47.00
75615;DHT22;64199;48.578;-4.520;2023-03-09T02:42:59;22.10;46.90
75615;DHT22;64199;48.578;-4.520;2023-03-09T02:45:28;22.00;46.90
75615;DHT22;64199;48.578;-4.520;2023-03-09T02:47:55;22.00;46.80
75615;DHT22;64199;48.578;-4.520;2023-03-09T02:50:22;22.00;46.80
75615;DHT22;64199;48.578;-4.520;2023-03-09T02:52:49;22.00;46.80
75615;DHT22;64199;48.578;-4.520;2023-03-09T02:55:14;21.90;46.70
75615;DHT22;64199;48.578;-4.520;2023-03-09T02:57:44;21.90;46.70
75615;DHT22;64199;48.578;-4.520;2023-03-09T03:00:12;21.90;46.70
75615;DHT22;64199;48.578;-4.520;2023-03-09T03:02:40;21.90;46.70
75615;DHT22;64199;48.578;-4.520;2023-03-09T03:05:12;21.80;46.70
75615;DHT22;64199;48.578;-4.520;2023-03-09T03:07:38;21.80;46.70
75615;DHT22;64199;48.578;-4.520;2023-03-09T03:10:07;21.80;46.70
75615;DHT22;64199;48.578;-4.520;2023-03-09T03:12:33;21.70;46.70
75615;DHT22;64199;48.578;-4.520;2023-03-09T03:14:59;21.70;46.80
75615;DHT22;64199;48.578;-4.520;2023-03-09T03:17:25;21.70;46.90
75615;DHT22;64199;48.578;-4.520;2023-03-09T03:19:51;21.70;46.90
75615;DHT22;64199;48.578;-4.520;2023-03-09T03:22:18;21.70;46.90
75615;DHT22;64199;48.578;-4.520;2023-03-09T03:24:43;21.60;46.80
75615;DHT22;64199;48.578;-4.520;2023-03-09T03:27:09;21.60;46.80
75615;DHT22;64199;48.578;-4.520;2023-03-09T03:29:35;21.60;46.90
75615;DHT22;64199;48.578;-4.520;2023-03-09T03:32:01;21.50;46.90
75615;DHT22;64199;48.578;-4.520;2023-03-09T03:34:29;21.50;46.80
75615;DHT22;64199;48.578;-4.520;2023-03-09T03:36:54;21.50;46.80
75615;DHT22;64199;48.578;-4.520;2023-03-09T03:39:20;21.50;46.90
75615;DHT22;64199;48.578;-4.520;2023-03-09T03:41:46;21.50;46.90
75615;DHT22;64199;48.578;-4.520;2023-03-09T03:44:12;21.40;46.80
75615;DHT22;64199;48.578;-4.520;2023-03-09T03:46:38;21.40;46.80
75615;DHT22;64199;48.578;-4.520;2023-03-09T03:49:04;21.40;46.90
75615;DHT22;64199;48.578;-4.520;2023-03-09T03:51:30;21.30;46.90
75615;DHT22;64199;48.578;-4.520;2023-03-09T03:53:55;21.30;46.90
75615;DHT22;64199;48.578;-4.520;2023-03-09T03:56:21;21.30;46.90
75615;DHT22;64199;48.578;-4.520;2023-03-09T03:58:47;21.30;47.00
75615;DHT22;64199;48.578;-4.520;2023-03-09T04:01:13;21.20;47.00
75615;DHT22;64199;48.578;-4.520;2023-03-09T04:03:39;21.20;47.00
75615;DHT22;64199;48.578;-4.520;2023-03-09T04:06:05;21.20;47.10
75615;DHT22;64199;48.578;-4.520;2023-03-09T04:08:34;21.20;47.10
75615;DHT22;64199;48.578;-4.520;2023-03-09T04:11:05;21.20;47.20
75615;DHT22;64199;48.578;-4.520;2023-03-09T04:13:31;21.10;47.20
75615;DHT22;64199;48.578;-4.520;2023-03-09T04:15:57;21.10;47.20
75615;DHT22;64199;48.578;-4.520;2023-03-09T04:18:23;21.10;47.20
75615;DHT22;64199;48.578;-4.520;2023-03-09T04:20:49;21.10;47.20
75615;DHT22;64199;48.578;-4.520;2023-03-09T04:23:14;21.10;47.30
75615;DHT22;64199;48.578;-4.520;2023-03-09T04:25:40;21.00;47.30
75615;DHT22;64199;48.578;-4.520;2023-03-09T04:28:06;21.00;47.30
75615;DHT22;64199;48.578;-4.520;2023-03-09T04:30:32;21.00;47.30
75615;DHT22;64199;48.578;-4.520;2023-03-09T04:32:58;21.00;47.40
75615;DHT22;64199;48.578;-4.520;2023-03-09T04:35:24;21.00;47.50
75615;DHT22;64199;48.578;-4.520;2023-03-09T04:37:50;20.90;47.50
75615;DHT22;64199;48.578;-4.520;2023-03-09T04:40:17;20.90;47.50
75615;DHT22;64199;48.578;-4.520;2023-03-09T04:42:43;20.90;47.50
75615;DHT22;64199;48.578;-4.520;2023-03-09T04:45:09;20.90;47.60
75615;DHT22;64199;48.578;-4.520;2023-03-09T04:47:36;20.90;47.70
75615;DHT22;64199;48.578;-4.520;2023-03-09T04:50:02;20.90;47.80
75615;DHT22;64199;48.578;-4.520;2023-03-09T04:52:28;20.90;47.90
75615;DHT22;64199;48.578;-4.520;2023-03-09T04:54:54;20.90;48.00
75615;DHT22;64199;48.578;-4.520;2023-03-09T04:57:21;20.90;48.10
75615;DHT22;64199;48.578;-4.520;2023-03-09T04:59:47;20.90;48.30
75615;DHT22;64199;48.578;-4.520;2023-03-09T05:02:12;21.00;48.40
75615;DHT22;64199;48.578;-4.520;2023-03-09T05:04:40;21.00;48.40
75615;DHT22;64199;48.578;-4.520;2023-03-09T05:07:06;21.00;48.50
75615;DHT22;64199;48.578;-4.520;2023-03-09T05:09:32;21.00;48.50
75615;DHT22;64199;48.578;-4.520;2023-03-09T05:11:57;21.00;48.60
75615;DHT22;64199;48.578;-4.520;2023-03-09T05:14:23;21.00;48.60
75615;DHT22;64199;48.578;-4.520;2023-03-09T05:16:50;21.00;48.70
75615;DHT22;64199;48.578;-4.520;2023-03-09T05:19:19;21.10;49.00
75615;DHT22;64199;48.578;-4.520;2023-03-09T05:21:45;21.00;49.10
75615;DHT22;64199;48.578;-4.520;2023-03-09T05:24:12;21.10;49.50
75615;DHT22;64199;48.578;-4.520;2023-03-09T05:26:38;21.10;49.70
75615;DHT22;64199;48.578;-4.520;2023-03-09T05:29:04;21.10;49.80
75615;DHT22;64199;48.578;-4.520;2023-03-09T05:31:29;21.10;49.90
75615;DHT22;64199;48.578;-4.520;2023-03-09T05:33:56;21.20;49.90
75615;DHT22;64199;48.578;-4.520;2023-03-09T05:36:32;21.20;49.70
75615;DHT22;64199;48.578;-4.520;2023-03-09T05:38:58;21.20;49.60
75615;DHT22;64199;48.578;-4.520;2023-03-09T05:41:24;21.20;49.60
75615;DHT22;64199;48.578;-4.520;2023-03-09T05:43:50;21.20;49.50
75615;DHT22;64199;48.578;-4.520;2023-03-09T05:46:16;21.20;49.50
75615;DHT22;64199;48.578;-4.520;2023-03-09T05:48:46;21.30;49.50
75615;DHT22;64199;48.578;-4.520;2023-03-09T05:51:12;21.30;49.80
75615;DHT22;64199;48.578;-4.520;2023-03-09T05:53:38;21.30;50.60
75615;DHT22;64199;48.578;-4.520;2023-03-09T05:56:04;21.30;50.00
75615;DHT22;64199;48.578;-4.520;2023-03-09T05:58:31;21.30;50.00
75615;DHT22;64199;48.578;-4.520;2023-03-09T06:00:57;21.40;50.10
75615;DHT22;64199;48.578;-4.520;2023-03-09T06:03:25;21.40;50.10
75615;DHT22;64199;48.578;-4.520;2023-03-09T06:06:02;21.40;50.10
75615;DHT22;64199;48.578;-4.520;2023-03-09T06:08:29;21.40;50.10
75615;DHT22;64199;48.578;-4.520;2023-03-09T06:10:58;21.40;50.00
75615;DHT22;64199;48.578;-4.520;2023-03-09T06:13:24;21.40;50.10
75615;DHT22;64199;48.578;-4.520;2023-03-09T06:15:50;21.50;50.00
75615;DHT22;64199;48.578;-4.520;2023-03-09T06:18:15;21.50;49.90
75615;DHT22;64199;48.578;-4.520;2023-03-09T06:20:43;21.50;49.80
75615;DHT22;64199;48.578;-4.520;2023-03-09T06:23:10;21.50;49.80
75615;DHT22;64199;48.578;-4.520;2023-03-09T06:25:39;21.50;49.80
75615;DHT22;64199;48.578;-4.520;2023-03-09T06:28:05;21.50;49.70
75615;DHT22;64199;48.578;-4.520;2023-03-09T06:30:31;21.60;49.80
75615;DHT22;64199;48.578;-4.520;2023-03-09T06:32:57;21.60;49.80
75615;DHT22;64199;48.578;-4.520;2023-03-09T06:35:24;21.60;49.70
75615;DHT22;64199;48.578;-4.520;2023-03-09T06:37:50;21.60;49.70
75615;DHT22;64199;48.578;-4.520;2023-03-09T06:40:16;21.60;49.70
75615;DHT22;64199;48.578;-4.520;2023-03-09T06:42:43;21.70;49.70
75615;DHT22;64199;48.578;-4.520;2023-03-09T06:45:09;21.70;49.70
75615;DHT22;64199;48.578;-4.520;2023-03-09T06:47:35;21.70;49.70
75615;DHT22;64199;48.578;-4.520;2023-03-09T06:50:01;21.70;49.70
75615;DHT22;64199;48.578;-4.520;2023-03-09T06:52:27;21.70;49.70
75615;DHT22;64199;48.578;-4.520;2023-03-09T06:54:53;21.70;49.60
75615;DHT22;64199;48.578;-4.520;2023-03-09T06:57:19;21.70;49.70
75615;DHT22;64199;48.578;-4.520;2023-03-09T06:59:45;21.80;49.60
75615;DHT22;64199;48.578;-4.520;2023-03-09T07:02:11;21.80;49.60
75615;DHT22;64199;48.578;-4.520;2023-03-09T07:04:37;21.80;49.60
75615;DHT22;64199;48.578;-4.520;2023-03-09T07:07:03;21.80;49.60
75615;DHT22;64199;48.578;-4.520;2023-03-09T07:09:32;21.80;49.60
75615;DHT22;64199;48.578;-4.520;2023-03-09T07:11:58;21.80;49.60
75615;DHT22;64199;48.578;-4.520;2023-03-09T07:14:25;21.80;49.50
75615;DHT22;64199;48.578;-4.520;2023-03-09T07:16:52;21.80;49.50
75615;DHT22;64199;48.578;-4.520;2023-03-09T07:19:18;21.90;49.50
75615;DHT22;64199;48.578;-4.520;2023-03-09T07:21:44;21.90;49.50
75615;DHT22;64199;48.578;-4.520;2023-03-09T07:24:10;21.90;49.50
75615;DHT22;64199;48.578;-4.520;2023-03-09T07:26:36;21.90;49.50
75615;DHT22;64199;48.578;-4.520;2023-03-09T07:29:01;21.90;49.40
75615;DHT22;64199;48.578;-4.520;2023-03-09T07:31:28;21.90;49.40
75615;DHT22;64199;48.578;-4.520;2023-03-09T07:33:56;21.90;49.30
75615;DHT22;64199;48.578;-4.520;2023-03-09T07:36:22;22.00;49.40
75615;DHT22;64199;48.578;-4.520;2023-03-09T07:38:47;22.00;49.30
75615;DHT22;64199;48.578;-4.520;2023-03-09T07:41:14;22.00;49.20
75615;DHT22;64199;48.578;-4.520;2023-03-09T07:43:40;22.00;49.30
75615;DHT22;64199;48.578;-4.520;2023-03-09T07:46:17;22.00;49.40
75615;DHT22;64199;48.578;-4.520;2023-03-09T07:48:44;22.10;49.60
75615;DHT22;64199;48.578;-4.520;2023-03-09T07:51:11;22.10;49.60
75615;DHT22;64199;48.578;-4.520;2023-03-09T07:53:38;22.10;49.50
75615;DHT22;64199;48.578;-4.520;2023-03-09T07:56:13;22.10;49.50
75615;DHT22;64199;48.578;-4.520;2023-03-09T07:58:43;22.10;49.50
75615;DHT22;64199;48.578;-4.520;2023-03-09T08:01:15;22.10;49.40
75615;DHT22;64199;48.578;-4.520;2023-03-09T08:03:42;22.10;49.30
75615;DHT22;64199;48.578;-4.520;2023-03-09T08:06:08;22.10;49.70
75615;DHT22;64199;48.578;-4.520;2023-03-09T08:08:35;22.10;49.10
75615;DHT22;64199;48.578;-4.520;2023-03-09T08:11:02;22.10;49.00
75615;DHT22;64199;48.578;-4.520;2023-03-09T08:13:29;22.10;49.00
75615;DHT22;64199;48.578;-4.520;2023-03-09T08:15:55;22.10;48.80
75615;DHT22;64199;48.578;-4.520;2023-03-09T08:18:24;22.10;48.70
75615;DHT22;64199;48.578;-4.520;2023-03-09T08:20:50;22.10;48.60
75615;DHT22;64199;48.578;-4.520;2023-03-09T08:23:15;22.10;48.50
75615;DHT22;64199;48.578;-4.520;2023-03-09T08:25:41;22.10;48.50
75615;DHT22;64199;48.578;-4.520;2023-03-09T08:28:07;22.00;48.40
75615;DHT22;64199;48.578;-4.520;2023-03-09T08:30:33;22.00;48.50
75615;DHT22;64199;48.578;-4.520;2023-03-09T08:32:59;22.00;48.40
75615;DHT22;64199;48.578;-4.520;2023-03-09T08:35:29;22.00;48.30
75615;DHT22;64199;48.578;-4.520;2023-03-09T08:37:55;21.90;48.20
75615;DHT22;64199;48.578;-4.520;2023-03-09T08:40:22;21.90;48.20
75615;DHT22;64199;48.578;-4.520;2023-03-09T08:42:47;21.90;48.20
75615;DHT22;64199;48.578;-4.520;2023-03-09T08:45:13;22.00;48.20
75615;DHT22;64199;48.578;-4.520;2023-03-09T08:47:39;21.90;48.20
75615;DHT22;64199;48.578;-4.520;2023-03-09T08:50:06;21.90;48.20
75615;DHT22;64199;48.578;-4.520;2023-03-09T08:52:32;21.90;48.20
75615;DHT22;64199;48.578;-4.520;2023-03-09T08:55:04;21.80;48.10
75615;DHT22;64199;48.578;-4.520;2023-03-09T08:57:31;21.80;48.00
75615;DHT22;64199;48.578;-4.520;2023-03-09T08:59:57;21.80;48.00
75615;DHT22;64199;48.578;-4.520;2023-03-09T09:02:23;21.80;48.00
75615;DHT22;64199;48.578;-4.520;2023-03-09T09:04:49;21.80;48.00
75615;DHT22;64199;48.578;-4.520;2023-03-09T09:07:16;21.80;48.00
75615;DHT22;64199;48.578;-4.520;2023-03-09T09:09:42;21.70;48.00
75615;DHT22;64199;48.578;-4.520;2023-03-09T09:12:09;21.70;48.00
75615;DHT22;64199;48.578;-4.520;2023-03-09T09:14:37;21.70;48.00
75615;DHT22;64199;48.578;-4.520;2023-03-09T09:17:04;21.70;48.00
75615;DHT22;64199;48.578;-4.520;2023-03-09T09:19:33;21.70;48.00
75615;DHT22;64199;48.578;-4.520;2023-03-09T09:21:59;21.70;48.00
75615;DHT22;64199;48.578;-4.520;2023-03-09T09:24:26;21.60;48.20
75615;DHT22;64199;48.578;-4.520;2023-03-09T09:26:55;21.60;48.50
75615;DHT22;64199;48.578;-4.520;2023-03-09T09:29:21;21.60;48.60
75615;DHT22;64199;48.578;-4.520;2023-03-09T09:31:50;21.60;48.60
75615;DHT22;64199;48.578;-4.520;2023-03-09T09:34:16;21.60;48.80
75615;DHT22;64199;48.578;-4.520;2023-03-09T09:36:43;21.60;48.70
75615;DHT22;64199;48.578;-4.520;2023-03-09T09:39:11;21.60;48.60
75615;DHT22;64199;48.578;-4.520;2023-03-09T09:42:00;21.70;48.60
75615;DHT22;64199;48.578;-4.520;2023-03-09T09:44:37;21.70;48.60
75615;DHT22;64199;48.578;-4.520;2023-03-09T09:47:07;21.80;48.80
75615;DHT22;64199;48.578;-4.520;2023-03-09T09:49:48;21.80;48.50
75615;DHT22;64199;48.578;-4.520;2023-03-09T10:00:19;22.00;47.80
75615;DHT22;64199;48.578;-4.520;2023-03-09T10:08:17;21.90;47.10
75615;DHT22;64199;48.578;-4.520;2023-03-09T10:10:47;22.00;47.10
75615;DHT22;64199;48.578;-4.520;2023-03-09T10:13:18;22.00;47.10
75615;DHT22;64199;48.578;-4.520;2023-03-09T10:15:46;22.00;47.00
75615;DHT22;64199;48.578;-4.520;2023-03-09T10:18:19;22.00;47.00
75615;DHT22;64199;48.578;-4.520;2023-03-09T10:20:53;21.90;46.90
75615;DHT22;64199;48.578;-4.520;2023-03-09T10:23:24;21.90;46.90
75615;DHT22;64199;48.578;-4.520;2023-03-09T10:28:47;21.90;46.90
75615;DHT22;64199;48.578;-4.520;2023-03-09T10:31:39;21.90;46.90
75615;DHT22;64199;48.578;-4.520;2023-03-09T10:34:15;21.80;46.80
75615;DHT22;64199;48.578;-4.520;2023-03-09T10:37:29;21.80;46.90
75615;DHT22;64199;48.578;-4.520;2023-03-09T10:39:41;21.80;46.90
75615;DHT22;64199;48.578;-4.520;2023-03-09T10:42:24;21.70;46.90
75615;DHT22;64199;48.578;-4.520;2023-03-09T10:45:22;21.70;47.00
75615;DHT22;64199;48.578;-4.520;2023-03-09T10:48:00;21.70;47.00
75615;DHT22;64199;48.578;-4.520;2023-03-09T10:50:30;21.70;47.00
75615;DHT22;64199;48.578;-4.520;2023-03-09T10:52:56;21.60;47.00
75615;DHT22;64199;48.578;-4.520;2023-03-09T10:55:41;21.60;47.00
75615;DHT22;64199;48.578;-4.520;2023-03-09T10:58:18;21.60;47.00
75615;DHT22;64199;48.578;-4.520;2023-03-09T11:01:05;21.60;47.10
75615;DHT22;64199;48.578;-4.520;2023-03-09T11:03:44;21.50;47.20
75615;DHT22;64199;48.578;-4.520;2023-03-09T11:06:31;21.50;47.30
75615;DHT22;64199;48.578;-4.520;2023-03-09T11:09:13;21.50;47.40
75615;DHT22;64199;48.578;-4.520;2023-03-09T11:11:41;21.50;47.60
75615;DHT22;64199;48.578;-4.520;2023-03-09T11:14:28;21.50;47.80
75615;DHT22;64199;48.578;-4.520;2023-03-09T11:16:59;21.50;48.10
75615;DHT22;64199;48.578;-4.520;2023-03-09T11:19:27;21.50;48.20
75615;DHT22;64199;48.578;-4.520;2023-03-09T11:22:09;21.50;48.30
75615;DHT22;64199;48.578;-4.520;2023-03-09T11:24:45;21.50;48.30
75615;DHT22;64199;48.578;-4.520;2023-03-09T11:27:34;21.50;48.40
75615;DHT22;64199;48.578;-4.520;2023-03-09T11:30:17;21.50;48.50
75615;DHT22;64199;48.578;-4.520;2023-03-09T11:32:43;21.60;48.40
75615;DHT22;64199;48.578;-4.520;2023-03-09T11:35:14;21.60;48.40
75615;DHT22;64199;48.578;-4.520;2023-03-09T11:37:46;21.60;48.70
75615;DHT22;64199;48.578;-4.520;2023-03-09T11:40:19;21.60;48.80
75615;DHT22;64199;48.578;-4.520;2023-03-09T11:43:10;21.60;48.90
75615;DHT22;64199;48.578;-4.520;2023-03-09T11:45:40;21.70;49.10
75615;DHT22;64199;48.578;-4.520;2023-03-09T11:48:49;21.60;49.00
75615;DHT22;64199;48.578;-4.520;2023-03-09T11:51:18;21.70;49.20
75615;DHT22;64199;48.578;-4.520;2023-03-09T11:53:54;21.70;49.20
75615;DHT22;64199;48.578;-4.520;2023-03-09T11:56:35;21.70;49.30
75615;DHT22;64199;48.578;-4.520;2023-03-09T12:02:01;21.80;49.40
75615;DHT22;64199;48.578;-4.520;2023-03-09T12:04:27;21.80;49.40
75615;DHT22;64199;48.578;-4.520;2023-03-09T12:07:00;21.80;49.40
75615;DHT22;64199;48.578;-4.520;2023-03-09T12:10:22;21.80;49.50
75615;DHT22;64199;48.578;-4.520;2023-03-09T12:13:04;21.90;49.50
75615;DHT22;64199;48.578;-4.520;2023-03-09T12:18:30;21.90;49.60
75615;DHT22;64199;48.578;-4.520;2023-03-09T12:20:59;22.00;49.60
75615;DHT22;64199;48.578;-4.520;2023-03-09T12:29:02;22.00;49.60
75615;DHT22;64199;48.578;-4.520;2023-03-09T12:31:36;22.00;49.60
75615;DHT22;64199;48.578;-4.520;2023-03-09T12:34:04;22.00;49.70
75615;DHT22;64199;48.578;-4.520;2023-03-09T12:36:40;22.10;49.70
75615;DHT22;64199;48.578;-4.520;2023-03-09T12:53:23;22.20;49.70
75615;DHT22;64199;48.578;-4.520;2023-03-09T12:56:03;22.30;49.70
75615;DHT22;64199;48.578;-4.520;2023-03-09T12:58:41;22.20;49.60
75615;DHT22;64199;48.578;-4.520;2023-03-09T13:03:46;22.30;49.60
75615;DHT22;64199;48.578;-4.520;2023-03-09T13:06:32;22.30;49.60
75615;DHT22;64199;48.578;-4.520;2023-03-09T13:09:02;22.40;49.60
75615;DHT22;64199;48.578;-4.520;2023-03-09T13:14:03;22.40;49.50
75615;DHT22;64199;48.578;-4.520;2023-03-09T13:21:45;22.50;49.40
75615;DHT22;64199;48.578;-4.520;2023-03-09T13:30:12;22.50;49.80
75615;DHT22;64199;48.578;-4.520;2023-03-09T13:35:20;22.40;49.00
75615;DHT22;64199;48.578;-4.520;2023-03-09T13:37:53;22.40;49.10
75615;DHT22;64199;48.578;-4.520;2023-03-09T13:40:35;22.40;49.10
75615;DHT22;64199;48.578;-4.520;2023-03-09T13:43:19;22.40;49.00
75615;DHT22;64199;48.578;-4.520;2023-03-09T13:48:46;22.40;48.80
75615;DHT22;64199;48.578;-4.520;2023-03-09T13:51:37;22.40;48.80
75615;DHT22;64199;48.578;-4.520;2023-03-09T13:54:04;22.30;48.70
75615;DHT22;64199;48.578;-4.520;2023-03-09T13:56:30;22.30;48.60
75615;DHT22;64199;48.578;-4.520;2023-03-09T13:58:57;22.30;48.60
75615;DHT22;64199;48.578;-4.520;2023-03-09T14:01:28;22.30;48.60
75615;DHT22;64199;48.578;-4.520;2023-03-09T14:03:56;22.30;48.50
75615;DHT22;64199;48.578;-4.520;2023-03-09T14:06:31;22.30;48.50
75615;DHT22;64199;48.578;-4.520;2023-03-09T14:11:53;22.20;48.40
75615;DHT22;64199;48.578;-4.520;2023-03-09T14:14:21;22.20;48.40
75615;DHT22;64199;48.578;-4.520;2023-03-09T14:16:50;22.20;48.40
75615;DHT22;64199;48.578;-4.520;2023-03-09T14:21:52;22.20;48.30
75615;DHT22;64199;48.578;-4.520;2023-03-09T14:26:50;22.10;48.50
75615;DHT22;64199;48.578;-4.520;2023-03-09T14:31:43;22.10;48.60
75615;DHT22;64199;48.578;-4.520;2023-03-09T14:36:47;22.10;48.60
75615;DHT22;64199;48.578;-4.520;2023-03-09T14:39:30;22.10;48.60
75615;DHT22;64199;48.578;-4.520;2023-03-09T14:44:39;22.00;48.50
75615;DHT22;64199;48.578;-4.520;2023-03-09T14:47:24;22.00;48.60
75615;DHT22;64199;48.578;-4.520;2023-03-09T14:49:52;21.90;48.50
75615;DHT22;64199;48.578;-4.520;2023-03-09T14:52:21;22.00;48.50
75615;DHT22;64199;48.578;-4.520;2023-03-09T14:54:47;21.90;48.50
75615;DHT22;64199;48.578;-4.520;2023-03-09T14:57:15;21.90;48.50
75615;DHT22;64199;48.578;-4.520;2023-03-09T14:59:43;21.80;48.40
75615;DHT22;64199;48.578;-4.520;2023-03-09T15:02:13;21.80;48.40
75615;DHT22;64199;48.578;-4.520;2023-03-09T15:04:42;21.80;48.40
75615;DHT22;64199;48.578;-4.520;2023-03-09T15:07:17;21.80;48.30
75615;DHT22;64199;48.578;-4.520;2023-03-09T15:09:43;21.70;48.20
75615;DHT22;64199;48.578;-4.520;2023-03-09T15:12:21;21.70;48.20
75615;DHT22;64199;48.578;-4.520;2023-03-09T15:14:49;21.70;48.20
75615;DHT22;64199;48.578;-4.520;2023-03-09T15:17:21;21.60;48.10
75615;DHT22;64199;48.578;-4.520;2023-03-09T15:19:50;21.60;48.10
75615;DHT22;64199;48.578;-4.520;2023-03-09T15:22:18;21.60;48.10
75615;DHT22;64199;48.578;-4.520;2023-03-09T15:24:47;21.60;48.10
75615;DHT22;64199;48.578;-4.520;2023-03-09T15:27:13;21.60;48.10
75615;DHT22;64199;48.578;-4.520;2023-03-09T15:29:40;21.50;48.10
75615;DHT22;64199;48.578;-4.520;2023-03-09T15:32:10;21.50;48.20
75615;DHT22;64199;48.578;-4.520;2023-03-09T15:34:37;21.50;48.10
75615;DHT22;64199;48.578;-4.520;2023-03-09T15:37:04;21.50;48.10
75615;DHT22;64199;48.578;-4.520;2023-03-09T15:39:33;21.40;48.10
75615;DHT22;64199;48.578;-4.520;2023-03-09T15:42:02;21.40;48.00
75615;DHT22;64199;48.578;-4.520;2023-03-09T15:44:33;21.40;48.00
75615;DHT22;64199;48.578;-4.520;2023-03-09T15:47:02;21.40;48.10
75615;DHT22;64199;48.578;-4.520;2023-03-09T15:49:28;21.30;48.10
75615;DHT22;64199;48.578;-4.520;2023-03-09T15:51:58;21.30;48.10
75615;DHT22;64199;48.578;-4.520;2023-03-09T15:54:24;21.30;48.10
75615;DHT22;64199;48.578;-4.520;2023-03-09T15:56:52;21.20;48.10
75615;DHT22;64199;48.578;-4.520;2023-03-09T15:59:18;21.20;48.10
75615;DHT22;64199;48.578;-4.520;2023-03-09T16:01:47;21.20;48.10
75615;DHT22;64199;48.578;-4.520;2023-03-09T16:07:01;21.10;48.10
75615;DHT22;64199;48.578;-4.520;2023-03-09T16:09:27;21.10;48.10
75615;DHT22;64199;48.578;-4.520;2023-03-09T16:11:59;21.10;48.10
75615;DHT22;64199;48.578;-4.520;2023-03-09T16:14:26;21.00;48.10
75615;DHT22;64199;48.578;-4.520;2023-03-09T16:16:52;21.10;48.10
75615;DHT22;64199;48.578;-4.520;2023-03-09T16:19:21;21.00;48.10
75615;DHT22;64199;48.578;-4.520;2023-03-09T16:21:50;21.00;48.20
75615;DHT22;64199;48.578;-4.520;2023-03-09T16:24:17;21.00;48.10
75615;DHT22;64199;48.578;-4.520;2023-03-09T16:26:45;21.00;48.20
75615;DHT22;64199;48.578;-4.520;2023-03-09T16:29:11;20.90;48.10
75615;DHT22;64199;48.578;-4.520;2023-03-09T16:31:47;20.90;48.20
75615;DHT22;64199;48.578;-4.520;2023-03-09T16:34:13;20.80;48.10
75615;DHT22;64199;48.578;-4.520;2023-03-09T16:36:51;20.80;48.10
75615;DHT22;64199;48.578;-4.520;2023-03-09T16:39:17;20.90;48.20
75615;DHT22;64199;48.578;-4.520;2023-03-09T16:41:43;20.80;48.20
75615;DHT22;64199;48.578;-4.520;2023-03-09T16:44:17;20.80;48.20
75615;DHT22;64199;48.578;-4.520;2023-03-09T16:46:49;20.80;48.30
75615;DHT22;64199;48.578;-4.520;2023-03-09T16:49:16;20.80;48.40
75615;DHT22;64199;48.578;-4.520;2023-03-09T16:52:01;20.80;48.30
75615;DHT22;64199;48.578;-4.520;2023-03-09T16:54:30;20.80;48.40